Ever Lenient — 2HDF9 — position and weather

sailwx.info

Track history (hours):
 
Tides and Currents Weather Stations Pressure Air Temp Water Temp Dewpoint Dewpoint Depression Visibility Wind Speed Wind Dir Waves Ship Positions

Ever Lenient

Last reported at 2018-Apr-23 02:00 UTC. Time now 2018-Apr-23 09:35 UTC.
Position N 40°42' E 161°48'.

Length 335 m; draft 11.4 m.

Type: Ship (hazmat cat D). MMSI: 235102677.

Wind from 310 at 20 knots

Barometer 1019.0 mb
Air temperature 10.0 ° C
Visibility: greater than 10.8 NM
Dewpoint 5.7 ° C
Water temperature 10.0 ° C

Date/timePositionNaut miles runAvg speedWind from/ knotsBaromVisibWave heightAir tempDewpointWater temp
2018-Apr-23 02:00N 40°42' E 161°48'48120.9 310 / 201019.010.8 10.0 5.710.0
2018-Apr-22 03:00N 38°42' E 151°42'47520.7 290 / 181019.0 5.4 21.016.114.0
2018-Apr-21 04:00N 35°42' E 142°30'12022.7 230 / 121024.0 5.4 23.018.323.0
2018-Apr-20 22:43N 34°43' E 140°23'723.5
2018-Apr-20 22:24N 34°39' E 140°15'1123.7
2018-Apr-20 21:57N 34°33' E 140°04'1123.4
2018-Apr-20 21:28N 34°28' E 139°52'1522.8
2018-Apr-20 20:50N 34°20' E 139°37'823.1
2018-Apr-20 20:28N 34°16' E 139°29'2921.5
2018-Apr-20 19:06N 34°04' E 138°56'421.0
2018-Apr-20 18:55N 34°03' E 138°52'1020.8
2018-Apr-20 18:27N 33°60' E 138°41'1020.9
2018-Apr-20 17:57N 33°55' E 138°30'1321.3
2018-Apr-20 17:20N 33°49' E 138°16'821.3
2018-Apr-20 16:58N 33°45' E 138°07'1021.2
2018-Apr-20 16:30N 33°41' E 137°56'1121.3
2018-Apr-20 16:00N 33°36' E 137°45'1021.1
2018-Apr-20 15:30N 33°32' E 137°33'1120.9
2018-Apr-20 15:00N 33°27' E 137°22'1120.8
2018-Apr-20 14:28N 33°23' E 137°10'2521.0
2018-Apr-20 13:18N 33°12' E 136°43'  
2018-Apr-16 07:45N 31°06' E 122°26'412.3
2018-Apr-16 07:27N 31°06' E 122°22'613.6
2018-Apr-16 06:59N 31°08' E 122°15'713.3
2018-Apr-16 06:29N 31°12' E 122°09'1921.4
2018-Apr-16 05:37N 31°17' E 121°48'1 5.7
2018-Apr-16 05:29N 31°18' E 121°47'3 6.5
2018-Apr-16 05:00N 31°19' E 121°44'9 1.0
2018-Apr-15 20:28N 31°23' E 121°35'0 0.0
2018-Apr-15 19:34N 31°23' E 121°35'0 0.0
2018-Apr-15 19:22N 31°23' E 121°35'0 0.0
2018-Apr-15 16:43N 31°23' E 121°35'0 0.0
2018-Apr-15 04:18N 31°23' E 121°35'1 1.2
2018-Apr-15 03:49N 31°23' E 121°34'1 2.4
2018-Apr-15 03:29N 31°23' E 121°35'9 9.6
2018-Apr-15 02:31N 31°19' E 121°45'112.7
2018-Apr-15 02:26N 31°18' E 121°46'1229.2
2018-Apr-15 02:00N 31°15' E 121°60'912.2
2018-Apr-15 01:17N 31°11' E 122°09'2 6.7
2018-Apr-15 00:59N 31°10' E 122°11'3 5.6
2018-Apr-15 00:30N 31°09' E 122°14'3 6.5
2018-Apr-14 23:59N 31°07' E 122°17'3 6.5
2018-Apr-14 23:30N 31°06' E 122°21'4 8.4
2018-Apr-14 23:00N 31°06' E 122°26'  
Track history (hours):
 
Tides and Currents Weather Stations Pressure Air Temp Water Temp Dewpoint Dewpoint Depression Visibility Wind Speed Wind Dir Waves Ship Positions

Ever Lenient

Last reported at 2018-Apr-23 02:00 UTC. Time now 2018-Apr-23 09:35 UTC.
Position N 40°42' E 161°48'.

Length 335 m; draft 11.4 m.

Type: Ship (hazmat cat D). MMSI: 235102677.

Wind from 310 at 20 knots

Barometer 1019.0 mb
Air temperature 10.0 ° C
Visibility: greater than 10.8 NM
Dewpoint 5.7 ° C
Water temperature 10.0 ° C

Date/timePositionNaut miles runAvg speedWind from/ knotsBaromVisibWave heightAir tempDewpointWater temp
2018-Apr-23 02:00N 40°42' E 161°48'48120.9 310 / 201019.010.8 10.0 5.710.0
2018-Apr-22 03:00N 38°42' E 151°42'47520.7 290 / 181019.0 5.4 21.016.114.0
2018-Apr-21 04:00N 35°42' E 142°30'12022.7 230 / 121024.0 5.4 23.018.323.0
2018-Apr-20 22:43N 34°43' E 140°23'723.5
2018-Apr-20 22:24N 34°39' E 140°15'1123.7
2018-Apr-20 21:57N 34°33' E 140°04'1123.4
2018-Apr-20 21:28N 34°28' E 139°52'1522.8
2018-Apr-20 20:50N 34°20' E 139°37'823.1
2018-Apr-20 20:28N 34°16' E 139°29'2921.5
2018-Apr-20 19:06N 34°04' E 138°56'421.0
2018-Apr-20 18:55N 34°03' E 138°52'1020.8
2018-Apr-20 18:27N 33°60' E 138°41'1020.9
2018-Apr-20 17:57N 33°55' E 138°30'1321.3
2018-Apr-20 17:20N 33°49' E 138°16'821.3
2018-Apr-20 16:58N 33°45' E 138°07'1021.2
2018-Apr-20 16:30N 33°41' E 137°56'1121.3
2018-Apr-20 16:00N 33°36' E 137°45'1021.1
2018-Apr-20 15:30N 33°32' E 137°33'1120.9
2018-Apr-20 15:00N 33°27' E 137°22'1120.8
2018-Apr-20 14:28N 33°23' E 137°10'2521.0
2018-Apr-20 13:18N 33°12' E 136°43'  
2018-Apr-16 07:45N 31°06' E 122°26'412.3
2018-Apr-16 07:27N 31°06' E 122°22'613.6
2018-Apr-16 06:59N 31°08' E 122°15'713.3
2018-Apr-16 06:29N 31°12' E 122°09'1921.4
2018-Apr-16 05:37N 31°17' E 121°48'1 5.7
2018-Apr-16 05:29N 31°18' E 121°47'3 6.5
2018-Apr-16 05:00N 31°19' E 121°44'9 1.0
2018-Apr-15 20:28N 31°23' E 121°35'0 0.0
2018-Apr-15 19:34N 31°23' E 121°35'0 0.0
2018-Apr-15 19:22N 31°23' E 121°35'0 0.0
2018-Apr-15 16:43N 31°23' E 121°35'0 0.0
2018-Apr-15 04:18N 31°23' E 121°35'1 1.2
2018-Apr-15 03:49N 31°23' E 121°34'1 2.4
2018-Apr-15 03:29N 31°23' E 121°35'9 9.6
2018-Apr-15 02:31N 31°19' E 121°45'112.7
2018-Apr-15 02:26N 31°18' E 121°46'1229.2
2018-Apr-15 02:00N 31°15' E 121°60'912.2
2018-Apr-15 01:17N 31°11' E 122°09'2 6.7
2018-Apr-15 00:59N 31°10' E 122°11'3 5.6
2018-Apr-15 00:30N 31°09' E 122°14'3 6.5
2018-Apr-14 23:59N 31°07' E 122°17'3 6.5
2018-Apr-14 23:30N 31°06' E 122°21'4 8.4
2018-Apr-14 23:00N 31°06' E 122°26'  

Dump ship's entire track history